PWSweather.com
Personal Weather Stations
Station Observations
WISCHPK61
Green Bay Schmitt Park, Green Bay, WI 54311

Green Bay Schmitt ParkGreen Bay, WI 54311

Lat: 44.514277, Lon: -87.935067

Elevation: 735

Station Type: Acu Rite Pro Weather Center model 02032C

http://greenbayweathercam.com

High Low Average
Temperature 30.4°F-0.9°C 25.3°F-3.7°C 27.9°F-2.3°C
Dew Point 30.2°F-1.0°C 19.9°F-6.7°C 26.0°F-3.3°C
Winds Calm Calm Calm Calm Calm SSECalm SSE
Wind Gusts 1.2 mph1.9 kmh -- --
Humidity 99% 79% 93%
Pressure 29.75 in1007.5 mb 29.61 in1002.7 mb -
Precipitation 0.00 in0.0 mm - -
Hour Temp Dew Point Humidity Winds Wind Gusts Pressure Precip Precip Rate Daily Precip Total
12:00 AM 25.5°F-3.6°C 19.9°F-6.7°C 79% Calm Calm -- 29.61 in1002.7 mb - 0.00 in0.0 mm 0.00 in0.0 mm
01:00 AM 25.3°F-3.7°C 20.0°F-6.7°C 80% Calm Calm -- 29.62 in1003.0 mb - 0.00 in0.0 mm 0.00 in0.0 mm
02:00 AM 25.9°F-3.4°C 25.7°F-3.5°C 99% Calm Calm -- 29.62 in1003.0 mb - 0.00 in0.0 mm 0.00 in0.0 mm
03:00 AM 26.2°F-3.2°C 23.1°F-4.9°C 88% Calm Calm -- 29.63 in1003.4 mb - 0.00 in0.0 mm 0.00 in0.0 mm
04:00 AM 26.6°F-3.0°C 22.7°F-5.2°C 85% Calm Calm -- 29.63 in1003.4 mb - 0.00 in0.0 mm 0.00 in0.0 mm
05:00 AM 27.1°F-2.7°C 26.9°F-2.8°C 99% Calm Calm -- 29.64 in1003.7 mb - 0.00 in0.0 mm 0.00 in0.0 mm
06:00 AM 27.5°F-2.5°C 27.3°F-2.6°C 99% Calm Calm -- 29.65 in1004.1 mb - 0.00 in0.0 mm 0.00 in0.0 mm
07:00 AM 28.4°F-2.0°C 23.9°F-4.5°C 83% Calm Calm -- 29.66 in1004.4 mb - 0.00 in0.0 mm 0.00 in0.0 mm
08:00 AM 30.2°F-1.0°C 27.3°F-2.6°C 89% Calm Calm -- 29.68 in1005.1 mb - 0.00 in0.0 mm 0.00 in0.0 mm
09:00 AM 29.8°F-1.2°C 29.6°F-1.3°C 99% Calm Calm -- 29.71 in1006.1 mb - 0.00 in0.0 mm 0.00 in0.0 mm
10:00 AM 29.7°F-1.3°C 29.0°F-1.7°C 97% Calm Calm -- 29.73 in1006.8 mb - 0.00 in0.0 mm 0.00 in0.0 mm
11:00 AM 30.2°F-1.0°C 30.0°F-1.1°C 99% Calm Calm -- 29.73 in1006.8 mb - 0.00 in0.0 mm 0.00 in0.0 mm
12:00 PM 30.4°F-0.9°C 30.2°F-1.0°C 99% Calm Calm -- 29.71 in1006.1 mb - 0.00 in0.0 mm 0.00 in0.0 mm
01:00 PM 30.4°F-0.9°C 26.4°F-3.1°C 85% Calm Calm -- 29.71 in1006.1 mb - 0.00 in0.0 mm 0.00 in0.0 mm
02:00 PM 30.0°F-1.1°C 29.0°F-1.7°C 96% Calm Calm -- 29.71 in1006.1 mb - 0.00 in0.0 mm 0.00 in0.0 mm
03:00 PM 29.5°F-1.4°C 29.3°F-1.5°C 99% Calm Calm -- 29.72 in1006.4 mb - 0.00 in0.0 mm 0.00 in0.0 mm
04:00 PM 29.1°F-1.6°C 28.9°F-1.7°C 99% Calm Calm -- 29.73 in1006.8 mb - 0.00 in0.0 mm 0.00 in0.0 mm
05:00 PM 28.2°F-2.1°C 28.0°F-2.2°C 99% Calm Calm -- 29.73 in1006.8 mb - 0.00 in0.0 mm 0.00 in0.0 mm
06:00 PM 27.5°F-2.5°C 24.4°F-4.2°C 88% Calm Calm 1.2 mph1.9 kmh 29.74 in1007.1 mb - 0.00 in0.0 mm 0.00 in0.0 mm
07:00 PM 26.4°F-3.1°C 22.8°F-5.1°C 86% Calm Calm -- 29.75 in1007.5 mb - 0.00 in0.0 mm 0.00 in0.0 mm
08:00 PM 26.6°F-3.0°C 21.8°F-5.7°C 82% Calm Calm -- 29.74 in1007.1 mb - 0.00 in0.0 mm 0.00 in0.0 mm
09:00 PM 26.2°F-3.2°C 26.0°F-3.3°C 99% Calm Calm -- 29.75 in1007.5 mb - 0.00 in0.0 mm 0.00 in0.0 mm
10:00 PM 26.2°F-3.2°C 26.0°F-3.3°C 99% Calm Calm -- 29.75 in1007.5 mb - 0.00 in0.0 mm 0.00 in0.0 mm
11:00 PM 25.9°F-3.4°C 25.7°F-3.5°C 99% Calm Calm -- 29.75 in1007.5 mb - 0.00 in0.0 mm 0.00 in0.0 mm